Time;durP1;ratioP1;P1;durP2;ratioP2;P2;SDS_P1;SDS_P2;PMS_P1;PMS_P2;Temp;Humidity;BMP_temperature;BMP_pressure;BME280_temperature;BME280_humidity;BME280_pressure;Samples;Min_cycle;Max_cycle;Signal;HPM_P1;HPM_P2
2021/10/05 00:01:03;;;;;;;4.88;1.85;;;;;;;10.69;100.00;101114.06;2614946;36;20146;-64
2021/10/05 00:03:31;;;;;;;8.20;1.95;;;;;;;10.65;100.00;101112.59;2614642;36;20173;-65
2021/10/05 00:05:59;;;;;;;3.47;1.63;;;;;;;10.58;100.00;101119.50;2614535;36;20129;-64
2021/10/05 00:08:27;;;;;;;4.93;1.98;;;;;;;10.55;100.00;101119.75;2615218;36;20147;-64
2021/10/05 00:10:56;;;;;;;3.22;1.95;;;;;;;10.46;100.00;101114.16;2613957;36;20077;-65
2021/10/05 00:13:24;;;;;;;5.00;1.50;;;;;;;10.42;100.00;101118.06;2615554;31;20151;-64
2021/10/05 00:15:52;;;;;;;5.47;1.87;;;;;;;10.46;100.00;101114.16;2614413;36;20157;-65
2021/10/05 00:18:23;;;;;;;3.40;2.00;;;;;;;10.44;100.00;101116.13;2614526;36;20057;-63
2021/10/05 00:20:51;;;;;;;3.83;1.75;;;;;;;10.47;100.00;101110.47;2614988;36;20133;-64
2021/10/05 00:23:19;;;;;;;2.97;1.55;;;;;;;10.50;100.00;101114.75;2615277;36;20114;-64
2021/10/05 00:25:48;;;;;;;5.35;1.80;;;;;;;10.46;100.00;101106.06;2614241;31;20172;-65
2021/10/05 00:28:16;;;;;;;5.20;1.73;;;;;;;10.42;100.00;101101.94;2615343;36;20589;-64
2021/10/05 00:30:44;;;;;;;6.72;2.10;;;;;;;10.51;100.00;101095.78;2615047;36;20121;-65
2021/10/05 00:33:13;;;;;;;5.28;1.60;;;;;;;10.42;100.00;101096.56;2615034;36;20126;-66
2021/10/05 00:35:43;;;;;;;5.25;1.80;;;;;;;10.42;100.00;101091.16;2614953;31;20496;-67
2021/10/05 00:38:12;;;;;;;4.80;2.15;;;;;;;10.44;100.00;101088.38;2614587;36;20133;-66
2021/10/05 00:40:40;;;;;;;2.97;1.95;;;;;;;10.50;100.00;101086.00;2615013;36;20126;-66
2021/10/05 00:43:08;;;;;;;4.43;1.83;;;;;;;10.55;100.00;101090.16;2615417;36;20150;-65
2021/10/05 00:45:37;;;;;;;4.72;1.60;;;;;;;10.59;100.00;101086.22;2614909;36;20209;-66
2021/10/05 00:48:06;;;;;;;2.58;1.90;;;;;;;10.48;100.00;101082.59;2614599;36;20030;-67
2021/10/05 00:50:35;;;;;;;6.47;2.10;;;;;;;10.41;100.00;101081.41;2614960;36;20161;-66
2021/10/05 00:53:06;;;;;;;7.13;2.00;;;;;;;10.43;100.00;101083.97;2615070;36;20220;-65
2021/10/05 00:55:34;;;;;;;5.50;1.98;;;;;;;10.37;100.00;101076.41;2614450;36;20073;-66
2021/10/05 00:58:02;;;;;;;5.20;2.08;;;;;;;10.30;100.00;101067.97;2614645;36;21277;-65
2021/10/05 01:00:30;;;;;;;4.97;2.10;;;;;;;10.35;100.00;101068.47;2614860;31;20676;-65
2021/10/05 01:02:59;;;;;;;4.88;2.15;;;;;;;10.36;100.00;101051.34;2614964;36;20134;-64
2021/10/05 01:05:27;;;;;;;3.55;1.85;;;;;;;10.28;100.00;101064.56;2615240;31;20522;-65
2021/10/05 01:07:55;;;;;;;2.70;1.70;;;;;;;10.24;100.00;101053.19;2614849;36;20034;-66
2021/10/05 01:10:28;;;;;;;9.75;2.10;;;;;;;10.28;100.00;101046.56;2614549;36;20210;-66
2021/10/05 01:12:56;;;;;;;4.53;1.85;;;;;;;10.23;100.00;101042.56;2615696;36;20626;-65
2021/10/05 01:15:29;;;;;;;7.57;2.10;;;;;;;10.23;100.00;101034.50;2614843;36;20134;-66
2021/10/05 01:17:57;;;;;;;5.65;1.90;;;;;;;10.23;100.00;101027.28;2614633;36;20457;-66
2021/10/05 01:20:26;;;;;;;6.15;1.85;;;;;;;10.26;100.00;101026.16;2614160;36;20125;-65
2021/10/05 01:22:57;;;;;;;3.23;1.90;;;;;;;10.23;100.00;101018.34;2614953;36;20170;-65
2021/10/05 01:25:25;;;;;;;2.65;1.73;;;;;;;10.30;100.00;101016.84;2614415;36;20150;-66
2021/10/05 01:27:55;;;;;;;7.03;1.90;;;;;;;10.31;100.00;101018.56;2614442;36;20197;-65
2021/10/05 01:30:24;;;;;;;6.45;2.05;;;;;;;10.21;100.00;101014.94;2614705;31;20121;-64
2021/10/05 01:32:52;;;;;;;9.45;1.92;;;;;;;10.22;100.00;101004.06;2614563;36;20110;-65
2021/10/05 01:35:21;;;;;;;2.95;1.67;;;;;;;10.17;100.00;101001.75;2615409;31;20623;-68
2021/10/05 01:37:49;;;;;;;5.30;1.85;;;;;;;10.14;100.00;101006.53;2614693;36;20083;-66
2021/10/05 01:40:20;;;;;;;4.13;1.77;;;;;;;10.20;100.00;101005.16;2614338;36;20145;-67
2021/10/05 01:42:48;;;;;;;4.55;1.88;;;;;;;10.20;100.00;101003.31;2614844;36;20023;-65
2021/10/05 01:45:16;;;;;;;7.20;2.08;;;;;;;10.16;100.00;100999.22;2614963;36;20118;-66
2021/10/05 01:47:45;;;;;;;5.50;1.95;;;;;;;10.11;100.00;100994.19;2614330;36;20556;-66
2021/10/05 01:50:13;;;;;;;2.90;1.75;;;;;;;10.11;100.00;100990.66;2614756;31;20038;-65
2021/10/05 01:52:42;;;;;;;3.92;1.77;;;;;;;10.03;100.00;100999.38;2614308;36;20065;-65
2021/10/05 01:55:11;;;;;;;7.30;2.22;;;;;;;9.99;100.00;100995.25;2614239;36;20126;-66
2021/10/05 01:57:41;;;;;;;5.13;1.92;;;;;;;10.02;100.00;100986.91;2613943;36;20827;-65
2021/10/05 02:00:11;;;;;;;3.70;1.52;;;;;;;10.07;100.00;100990.09;2615205;36;20118;-68
2021/10/05 02:02:39;;;;;;;4.25;1.90;;;;;;;10.08;100.00;100988.22;2614078;36;20121;-66
2021/10/05 02:05:09;;;;;;;5.50;2.00;;;;;;;10.09;100.00;100982.72;2614952;36;20153;-65
2021/10/05 02:07:37;;;;;;;;;;;;;;;10.09;100.00;100976.50;2614099;36;20137;-66
2021/10/05 02:10:08;;;;;;;9.07;2.30;;;;;;;10.06;100.00;100972.22;2614568;31;19953;-67
2021/10/05 02:12:36;;;;;;;7.35;1.77;;;;;;;10.03;100.00;100972.50;2614535;36;20879;-65
2021/10/05 02:15:09;;;;;;;3.83;2.03;;;;;;;10.05;100.00;100965.13;2612780;36;20630;-65
2021/10/05 02:17:37;;;;;;;4.82;1.75;;;;;;;10.09;100.00;100961.22;2614249;36;20137;-64
2021/10/05 02:20:07;;;;;;;6.13;2.30;;;;;;;10.05;100.00;100959.75;2614120;36;20213;-66
2021/10/05 02:22:35;;;;;;;6.20;2.10;;;;;;;10.04;100.00;100958.06;2614706;36;20121;-65
2021/10/05 02:25:03;;;;;;;4.60;1.85;;;;;;;10.15;100.00;100954.47;2614588;36;20137;-65
2021/10/05 02:27:32;;;;;;;6.63;2.30;;;;;;;10.07;100.00;100947.06;2614362;36;20117;-65
2021/10/05 02:30:00;;;;;;;3.83;1.90;;;;;;;10.05;100.00;100949.00;2614648;36;20120;-65
2021/10/05 02:32:31;;;;;;;3.97;1.90;;;;;;;10.05;100.00;100945.47;2614896;36;20149;-65
2021/10/05 02:35:00;;;;;;;5.90;2.13;;;;;;;9.99;100.00;100938.78;2614436;36;20149;-65
2021/10/05 02:37:31;;;;;;;4.88;2.22;;;;;;;9.97;100.00;100935.38;2614300;36;20038;-67
2021/10/05 02:40:00;;;;;;;9.60;2.88;;;;;;;10.06;100.00;100926.50;2614026;36;20030;-66
2021/10/05 02:42:29;;;;;;;4.53;2.17;;;;;;;10.04;100.00;100924.94;2614686;36;20130;-65
2021/10/05 02:44:57;;;;;;;5.32;2.25;;;;;;;9.98;100.00;100927.16;2614842;36;20732;-67
2021/10/05 02:47:26;;;;;;;6.90;1.80;;;;;;;10.04;100.00;100916.88;2614404;36;20613;-65
2021/10/05 02:49:57;;;;;;;10.93;3.40;;;;;;;10.17;100.00;100914.81;2614586;36;20058;-65
2021/10/05 02:52:26;;;;;;;10.70;2.90;;;;;;;10.09;100.00;100912.81;2614227;36;20586;-65
2021/10/05 02:54:54;;;;;;;8.93;2.55;;;;;;;9.98;100.00;100904.78;2614555;36;20570;-65
2021/10/05 02:57:23;;;;;;;16.83;4.40;;;;;;;10.05;100.00;100899.75;2614607;36;20149;-67
2021/10/05 02:59:52;;;;;;;20.48;6.35;;;;;;;10.11;100.00;100889.31;2614588;36;20177;-66
2021/10/05 03:02:20;;;;;;;33.03;7.20;;;;;;;10.07;100.00;100895.97;2613857;31;20125;-65
2021/10/05 03:04:48;;;;;;;21.60;5.90;;;;;;;10.09;100.00;100877.00;2614719;36;20161;-65
2021/10/05 03:07:19;;;;;;;18.00;4.68;;;;;;;10.02;100.00;100868.59;2614286;36;20034;-64
2021/10/05 03:09:48;;;;;;;8.75;3.30;;;;;;;10.05;100.00;100862.94;2614211;36;20031;-65
2021/10/05 03:12:16;;;;;;;5.45;2.00;;;;;;;10.08;100.00;100846.53;2614587;36;20125;-65
2021/10/05 03:14:44;;;;;;;10.20;2.55;;;;;;;10.13;100.00;100838.94;2614427;36;20034;-66
2021/10/05 03:17:12;;;;;;;6.47;2.13;;;;;;;10.11;100.00;100840.06;2614504;36;20717;-66
2021/10/05 03:19:41;;;;;;;7.57;2.85;;;;;;;10.08;100.00;100840.31;2613986;36;20122;-66
2021/10/05 03:22:09;;;;;;;5.95;2.20;;;;;;;10.08;100.00;100841.16;2614616;36;20699;-65
2021/10/05 03:24:40;;;;;;;7.80;2.67;;;;;;;10.11;100.00;100846.28;2614043;36;20077;-65
2021/10/05 03:27:10;;;;;;;13.70;4.45;;;;;;;10.09;100.00;100842.88;2614544;36;20114;-65
2021/10/05 03:29:38;;;;;;;18.02;4.68;;;;;;;10.11;100.00;100846.28;2614740;36;20550;-65
2021/10/05 03:32:07;;;;;;;10.30;3.40;;;;;;;10.10;100.00;100838.34;2614491;36;20149;-65
2021/10/05 03:34:35;;;;;;;5.30;2.70;;;;;;;10.17;100.00;100835.00;2614643;36;20141;-66
2021/10/05 03:37:04;;;;;;;5.65;2.25;;;;;;;10.17;100.00;100828.75;2613887;36;20030;-66
2021/10/05 03:39:32;;;;;;;6.47;2.03;;;;;;;10.11;100.00;100834.69;2613404;36;20126;-68
2021/10/05 03:42:03;;;;;;;2.78;1.75;;;;;;;10.09;100.00;100824.06;2614928;36;20126;-65
2021/10/05 03:44:31;;;;;;;6.05;2.00;;;;;;;10.05;100.00;100825.31;2614366;36;20114;-67
2021/10/05 03:46:59;;;;;;;3.75;1.90;;;;;;;10.05;100.00;100819.06;2614205;36;20166;-65
2021/10/05 03:49:28;;;;;;;4.05;1.75;;;;;;;10.12;100.00;100814.88;2613707;36;20026;-65
2021/10/05 03:51:56;;;;;;;3.83;2.03;;;;;;;10.08;100.00;100803.50;2615305;31;20470;-66
2021/10/05 03:54:24;;;;;;;4.88;1.98;;;;;;;10.02;100.00;100804.06;2613903;36;20149;-66
2021/10/05 03:56:53;;;;;;;7.10;2.10;;;;;;;9.93;100.00;100805.72;2613662;36;20149;-67
2021/10/05 03:59:23;;;;;;;5.38;2.08;;;;;;;9.96;100.00;100801.91;2614180;36;20062;-66
2021/10/05 04:01:52;;;;;;;5.15;1.90;;;;;;;9.99;100.00;100796.25;2614655;36;20130;-66
2021/10/05 04:04:20;;;;;;;4.10;2.10;;;;;;;9.99;100.00;100790.88;2613908;36;20045;-65
2021/10/05 04:06:48;;;;;;;4.40;1.70;;;;;;;9.98;100.00;100787.34;2614057;36;20551;-65
2021/10/05 04:09:16;;;;;;;5.10;2.08;;;;;;;9.91;100.00;100796.06;2613404;36;20146;-67
2021/10/05 04:11:45;;;;;;;5.68;2.03;;;;;;;9.90;100.00;100791.69;2614355;36;20197;-65
2021/10/05 04:14:13;;;;;;;8.43;2.08;;;;;;;9.86;100.00;100790.25;2614049;36;20042;-64
2021/10/05 04:16:44;;;;;;;4.40;2.00;;;;;;;9.82;100.00;100793.22;2613914;36;20085;-65
2021/10/05 04:19:12;;;;;;;3.75;2.03;;;;;;;9.78;100.00;100786.38;2614044;36;20181;-65
2021/10/05 04:21:40;;;;;;;6.60;2.30;;;;;;;9.75;100.00;100785.81;2614846;36;20616;-65
2021/10/05 04:24:09;;;;;;;2.72;1.70;;;;;;;9.74;100.00;100784.94;2613617;32;20121;-65
2021/10/05 04:26:37;;;;;;;4.00;1.73;;;;;;;9.75;100.00;100786.66;2613828;36;20133;-65
2021/10/05 04:29:05;;;;;;;4.78;2.13;;;;;;;9.73;100.00;100782.38;2614527;36;20176;-65
2021/10/05 04:31:36;;;;;;;5.35;2.00;;;;;;;9.68;100.00;100781.94;2614020;36;20417;-65
2021/10/05 04:34:07;;;;;;;3.10;2.00;;;;;;;9.67;100.00;100773.03;2614477;36;20407;-66
2021/10/05 04:36:35;;;;;;;4.78;1.95;;;;;;;9.69;100.00;100765.69;2615577;31;20785;-65
2021/10/05 04:39:04;;;;;;;6.25;2.38;;;;;;;9.67;100.00;100767.66;2614872;36;20126;-65
2021/10/05 04:41:32;;;;;;;5.78;2.20;;;;;;;9.71;100.00;100765.56;2614768;36;20157;-67
2021/10/05 04:44:00;;;;;;;5.78;2.25;;;;;;;9.62;100.00;100759.16;2615381;36;20141;-67
2021/10/05 04:46:28;;;;;;;4.03;2.17;;;;;;;9.60;100.00;100756.59;2614687;31;20166;-67
2021/10/05 04:48:57;;;;;;;3.78;2.08;;;;;;;9.60;100.00;100753.06;2614929;36;20193;-65
2021/10/05 04:51:27;;;;;;;6.85;2.05;;;;;;;9.68;100.00;100753.22;2614754;36;20133;-65
2021/10/05 04:53:56;;;;;;;5.30;2.13;;;;;;;9.65;100.00;100753.50;2614845;36;20117;-65
2021/10/05 04:56:24;;;;;;;6.40;2.20;;;;;;;9.63;100.00;100747.41;2614429;31;20554;-65
2021/10/05 04:58:52;;;;;;;3.78;2.45;;;;;;;9.70;100.00;100740.53;2614976;36;20093;-65
2021/10/05 05:01:20;;;;;;;3.75;2.25;;;;;;;9.71;100.00;100731.47;2615056;36;20121;-65
2021/10/05 05:03:48;;;;;;;3.85;2.20;;;;;;;9.74;100.00;100736.56;2614672;36;20569;-66
2021/10/05 05:06:16;;;;;;;5.15;2.13;;;;;;;9.70;100.00;100719.03;2614671;36;20251;-65
2021/10/05 05:08:47;;;;;;;3.55;2.00;;;;;;;9.72;100.00;100713.53;2614040;36;20162;-65
2021/10/05 05:11:15;;;;;;;3.50;1.77;;;;;;;9.81;100.00;100720.78;2614521;36;20069;-65
2021/10/05 05:13:44;;;;;;;4.10;1.50;;;;;;;9.77;100.00;100706.72;2614109;36;20173;-63
2021/10/05 05:16:12;;;;;;;3.35;2.22;;;;;;;9.77;100.00;100703.19;2615250;36;20122;-66
2021/10/05 05:18:40;;;;;;;3.63;1.90;;;;;;;9.74;100.00;100701.63;2613860;36;20613;-65
2021/10/05 05:21:09;;;;;;;5.55;2.22;;;;;;;9.68;100.00;100704.84;2614953;36;20057;-65
2021/10/05 05:23:37;;;;;;;7.38;2.20;;;;;;;9.71;100.00;100704.59;2615454;36;20443;-67
2021/10/05 05:26:08;;;;;;;5.03;2.50;;;;;;;9.71;100.00;100704.59;2614035;36;20042;-65
2021/10/05 05:28:36;;;;;;;4.60;2.38;;;;;;;9.70;100.00;100702.03;2613577;36;20085;-66
2021/10/05 05:31:04;;;;;;;6.43;2.00;;;;;;;9.67;100.00;100700.47;2614373;36;20561;-66
2021/10/05 05:33:32;;;;;;;5.00;1.90;;;;;;;9.67;100.00;100696.94;2614591;36;20145;-65
2021/10/05 05:36:01;;;;;;;5.72;2.40;;;;;;;9.66;100.00;100693.41;2614807;36;20634;-65
2021/10/05 05:38:29;;;;;;;6.60;1.80;;;;;;;9.62;100.00;100689.28;2613903;36;20118;-65
2021/10/05 05:40:57;;;;;;;5.03;2.20;;;;;;;9.64;100.00;100687.28;2614233;36;20637;-65
2021/10/05 05:43:29;;;;;;;4.17;2.07;;;;;;;9.58;100.00;100683.31;2614796;36;20522;-67
2021/10/05 05:45:57;;;;;;;6.40;2.20;;;;;;;9.53;100.00;100679.34;2614628;36;20412;-64
2021/10/05 05:48:25;;;;;;;4.50;2.50;;;;;;;9.51;100.00;100684.84;2614744;36;20137;-65
2021/10/05 05:50:54;;;;;;;4.15;1.98;;;;;;;9.50;100.00;100679.63;2615671;36;20165;-65
2021/10/05 05:53:22;;;;;;;6.57;3.00;;;;;;;9.50;100.00;100680.44;2615645;36;20046;-65
2021/10/05 05:55:50;;;;;;;5.07;2.33;;;;;;;9.52;100.00;100683.00;2615659;31;20514;-66
2021/10/05 05:58:20;;;;;;;3.83;2.05;;;;;;;9.45;100.00;100682.66;2614752;36;20138;-65
2021/10/05 06:00:51;;;;;;;6.63;2.10;;;;;;;9.47;100.00;100672.66;2614722;36;20430;-68
2021/10/05 06:03:19;;;;;;;5.18;1.90;;;;;;;9.49;100.00;100677.91;2614347;36;20157;-65
2021/10/05 06:05:47;;;;;;;3.05;2.13;;;;;;;9.57;100.00;100670.00;2614182;36;20029;-65
2021/10/05 06:08:16;;;;;;;5.30;2.20;;;;;;;9.58;100.00;100669.88;2613624;36;20034;-65
2021/10/05 06:10:44;;;;;;;4.05;2.30;;;;;;;9.57;100.00;100664.63;2613909;36;20037;-64
2021/10/05 06:13:13;;;;;;;5.70;2.20;;;;;;;9.52;100.00;100666.88;2608250;36;20134;-65
2021/10/05 06:15:41;;;;;;;4.70;2.13;;;;;;;9.53;100.00;100663.22;2614284;36;20158;-63
2021/10/05 06:18:12;;;;;;;3.47;2.03;;;;;;;9.56;100.00;100660.25;2614468;36;20153;-64
2021/10/05 06:20:40;;;;;;;5.68;2.67;;;;;;;9.61;100.00;100666.06;2613939;36;20026;-64
2021/10/05 06:23:08;;;;;;;4.43;2.65;;;;;;;9.56;100.00;100665.63;2614078;36;20114;-65
2021/10/05 06:25:40;;;;;;;7.75;3.00;;;;;;;9.56;100.00;100665.63;2614012;36;20030;-66
2021/10/05 06:28:09;;;;;;;5.13;2.92;;;;;;;9.56;100.00;100657.56;2613851;31;20527;-64
2021/10/05 06:30:38;;;;;;;6.60;2.95;;;;;;;9.64;100.00;100661.28;2613567;36;20030;-64
2021/10/05 06:33:06;;;;;;;5.00;2.83;;;;;;;9.69;100.00;100646.56;2614022;36;20154;-64
2021/10/05 06:35:37;;;;;;;5.72;2.55;;;;;;;9.71;100.00;100645.47;2613353;36;20038;-66
2021/10/05 06:38:06;;;;;;;6.78;2.80;;;;;;;9.73;100.00;100643.50;2613094;36;20031;-66
2021/10/05 06:40:37;;;;;;;3.72;2.95;;;;;;;9.79;100.00;100637.56;2613486;36;20189;-65
2021/10/05 06:43:05;;;;;;;5.78;2.90;;;;;;;9.86;100.00;100637.03;2613867;36;20038;-64
2021/10/05 06:45:34;;;;;;;3.42;2.70;;;;;;;9.90;100.00;100643.84;2614411;36;20030;-65
2021/10/05 06:48:02;;;;;;;4.25;2.75;;;;;;;9.89;100.00;100631.38;2614094;36;20052;-65
2021/10/05 06:50:34;;;;;;;4.63;3.30;;;;;;;9.92;100.00;100637.34;2613591;36;20110;-64
2021/10/05 06:53:07;;;;;;;3.92;2.65;;;;;;;9.94;100.00;100626.44;2615261;36;20419;-65
2021/10/05 06:55:35;;;;;;;5.93;3.00;;;;;;;10.02;100.00;100631.13;2614079;36;20113;-67
2021/10/05 06:58:04;;;;;;;6.07;3.30;;;;;;;10.02;100.00;100631.13;2614575;36;20047;-65
2021/10/05 07:00:32;;;;;;;5.50;2.70;;;;;;;10.11;100.00;100625.75;2615495;31;20492;-65
2021/10/05 07:03:00;;;;;;;3.60;2.80;;;;;;;10.20;100.00;100624.06;2615252;36;20538;-65
2021/10/05 07:05:28;;;;;;;3.55;2.63;;;;;;;10.31;100.00;100613.19;2615109;36;20121;-65
2021/10/05 07:07:56;;;;;;;6.35;3.08;;;;;;;10.37;100.00;100614.50;2614274;36;20138;-67
2021/10/05 07:10:29;;;;;;;6.65;2.92;;;;;;;10.41;100.00;100610.53;2613272;36;20130;-66
2021/10/05 07:12:57;;;;;;;3.70;2.90;;;;;;;10.49;100.00;100602.59;2614155;36;20042;-65
2021/10/05 07:15:26;;;;;;;6.07;2.95;;;;;;;10.49;100.00;100596.38;2614345;34;20129;-65
2021/10/05 07:17:55;;;;;;;3.45;2.33;;;;;;;10.71;100.00;100594.38;2614584;36;20122;-67
2021/10/05 07:20:24;;;;;;;9.60;3.50;;;;;;;10.75;100.00;100590.41;2614616;36;20042;-65
2021/10/05 07:22:52;;;;;;;3.85;2.63;;;;;;;10.89;100.00;100583.72;2614238;36;20547;-65
2021/10/05 07:25:21;;;;;;;4.50;2.75;;;;;;;10.92;100.00;100583.44;2614451;36;20132;-66
2021/10/05 07:27:52;;;;;;;5.43;2.70;;;;;;;11.02;100.00;100586.94;2614028;36;20125;-66
2021/10/05 07:30:23;;;;;;;4.32;2.70;;;;;;;11.15;100.00;100595.56;2611905;31;20034;-64
2021/10/05 07:32:53;;;;;;;4.97;3.00;;;;;;;11.22;100.00;100591.28;2612698;36;20122;-65
2021/10/05 07:35:22;;;;;;;4.38;2.38;;;;;;;11.31;100.00;100586.88;2615509;36;20515;-64
2021/10/05 07:37:50;;;;;;;3.92;2.20;;;;;;;11.36;100.00;100589.09;2614982;36;20155;-64
2021/10/05 07:40:20;;;;;;;3.40;2.10;;;;;;;11.49;100.00;100575.31;2614099;36;20162;-64
2021/10/05 07:42:52;;;;;;;4.45;2.60;;;;;;;11.63;100.00;100569.41;2615614;36;20636;-66
2021/10/05 07:45:21;;;;;;;4.35;2.53;;;;;;;11.72;100.00;100556.88;2615137;36;22051;-65
2021/10/05 07:47:49;;;;;;;3.28;2.20;;;;;;;11.70;100.00;100558.88;2614822;36;20162;-65
2021/10/05 07:50:17;;;;;;;3.92;2.22;;;;;;;11.77;100.00;100549.19;2615650;31;20518;-65
2021/10/05 07:52:45;;;;;;;4.18;2.00;;;;;;;11.91;100.00;100540.56;2614379;36;20050;-65
2021/10/05 07:55:14;;;;;;;6.97;2.33;;;;;;;12.07;100.00;100541.75;2614520;36;20189;-65
2021/10/05 07:57:42;;;;;;;3.40;1.88;;;;;;;12.10;100.00;100536.06;2614647;36;20150;-66
2021/10/05 08:00:15;;;;;;;3.70;2.10;;;;;;;12.11;100.00;100532.34;2615271;36;20157;-65
2021/10/05 08:02:44;;;;;;;6.82;2.95;;;;;;;12.18;100.00;100528.03;2614544;36;20752;-67
2021/10/05 08:05:15;;;;;;;;;;;;;;;12.17;100.00;100523.66;2614472;31;20030;-66
2021/10/05 08:07:43;;;;;;;4.53;2.10;;;;;;;12.32;100.00;100518.53;2613516;36;19946;-64
2021/10/05 08:10:12;;;;;;;5.15;2.10;;;;;;;12.32;100.00;100515.00;2614831;31;20106;-64
2021/10/05 08:12:41;;;;;;;5.18;2.40;;;;;;;12.47;100.00;100512.59;2615166;36;20113;-64
2021/10/05 08:15:12;;;;;;;3.97;2.30;;;;;;;12.50;100.00;100507.75;2614755;36;20133;-67
2021/10/05 08:17:41;;;;;;;6.72;2.50;;;;;;;12.61;100.00;100507.47;2614385;36;20125;-66
2021/10/05 08:20:11;;;;;;;11.10;2.60;;;;;;;12.71;100.00;100498.44;2614104;36;20034;-67
2021/10/05 08:22:39;;;;;;;6.45;2.30;;;;;;;12.75;100.00;100494.38;2614252;36;20165;-64
2021/10/05 08:25:09;;;;;;;4.93;1.80;;;;;;;12.93;100.00;100503.28;2615455;36;20038;-65
2021/10/05 08:27:37;;;;;;;4.38;2.38;;;;;;;12.90;100.00;100495.50;2615128;36;20626;-64
2021/10/05 08:30:08;;;;;;;3.72;2.05;;;;;;;12.96;100.00;100502.13;2613599;36;20153;-65
2021/10/05 08:32:39;;;;;;;7.03;2.20;;;;;;;13.00;100.00;100486.44;2615434;36;20076;-64
2021/10/05 08:35:08;;;;;;;4.75;2.22;;;;;;;13.19;100.00;100464.59;2615763;36;20398;-64
2021/10/05 08:37:36;;;;;;;;;;;;;;;13.28;100.00;100469.00;2615702;36;20697;-65
2021/10/05 08:40:08;;;;;;;3.83;1.95;;;;;;;13.37;100.00;100466.34;2615868;31;20414;-66
2021/10/05 08:42:36;;;;;;;4.43;2.42;;;;;;;13.38;100.00;100462.63;2615587;36;20161;-66
2021/10/05 08:45:06;;;;;;;6.10;2.03;;;;;;;13.44;100.00;100467.38;2615673;36;20031;-66
2021/10/05 08:47:34;;;;;;;5.18;1.92;;;;;;;13.53;100.00;100452.88;2616343;31;20174;-67
2021/10/05 08:50:06;;;;;;;3.67;2.05;;;;;;;13.59;100.00;100454.94;2615224;36;20466;-64
2021/10/05 08:52:36;;;;;;;5.32;1.80;;;;;;;13.63;100.00;100450.00;2615876;36;20085;-65
2021/10/05 08:55:06;;;;;;;4.25;2.03;;;;;;;13.75;100.00;100453.25;2615295;36;20054;-65
2021/10/05 08:57:35;;;;;;;4.63;2.00;;;;;;;13.88;100.00;100444.66;2615422;36;20144;-65
2021/10/05 09:00:05;;;;;;;4.97;2.10;;;;;;;13.91;100.00;100439.72;2615906;31;20121;-64
2021/10/05 09:02:44;;;;;;;6.57;2.60;;;;;;;13.86;100.00;100435.88;2615498;31;20022;-65
2021/10/05 09:05:16;;;;;;;;;;;;;;;13.97;100.00;100425.56;2615403;36;20669;-64
2021/10/05 09:07:46;;;;;;;4.45;2.25;;;;;;;14.07;100.00;100425.38;2615299;36;19962;-66
2021/10/05 09:10:16;;;;;;;6.78;1.92;;;;;;;14.07;100.00;100416.41;2615339;36;20030;-65
2021/10/05 09:12:45;;;;;;;5.80;2.10;;;;;;;14.12;100.00;100416.72;2615130;36;20110;-65
2021/10/05 09:15:15;;;;;;;3.78;2.13;;;;;;;14.14;100.00;100409.31;2616182;36;20538;-67
2021/10/05 09:17:44;;;;;;;3.47;2.15;;;;;;;14.25;100.00;100406.25;2615270;36;20130;-67
2021/10/05 09:20:24;;;;;;;5.18;1.70;;;;;;;14.32;100.00;100399.13;2615466;31;20126;-64
2021/10/05 09:23:01;;;;;;;3.92;2.38;;;;;;;14.32;100.00;100407.22;2615643;36;20092;-68
2021/10/05 09:25:32;;;;;;;3.85;2.17;;;;;;;14.47;100.00;100387.59;2615217;36;20041;-63
2021/10/05 09:28:01;;;;;;;3.38;2.00;;;;;;;14.50;100.00;100387.22;2615331;36;20149;-67
2021/10/05 09:30:30;;;;;;;3.67;2.03;;;;;;;14.66;100.00;100384.53;2615759;31;20030;-66
2021/10/05 09:33:04;;;;;;;3.65;2.03;;;;;;;14.63;100.00;100376.72;2616086;31;20165;-66
2021/10/05 09:35:51;;;;;;;5.60;1.83;;;;;;;14.86;100.00;100375.97;2615902;36;20216;-66
2021/10/05 09:38:22;;;;;;;6.68;2.17;;;;;;;14.93;100.00;100363.41;2615564;36;20044;-66
2021/10/05 09:41:00;;;;;;;3.97;1.65;;;;;;;14.91;100.00;100370.03;2615569;36;20084;-66
2021/10/05 09:43:29;;;;;;;3.65;1.80;;;;;;;15.00;100.00;100356.28;2615362;36;20153;-65
2021/10/05 09:46:10;;;;;;;3.88;1.52;;;;;;;15.18;100.00;100357.84;2615643;36;20918;-65
2021/10/05 09:48:39;;;;;;;3.47;1.90;;;;;;;15.21;100.00;100360.22;2622267;36;20037;-64
2021/10/05 09:51:22;;;;;;;2.97;1.92;;;;;;;15.20;100.00;100359.34;2613874;36;20042;-66
2021/10/05 09:53:51;;;;;;;3.63;1.77;;;;;;;15.20;100.00;100355.81;2615690;36;20045;-66
2021/10/05 09:56:20;;;;;;;5.90;1.77;;;;;;;15.26;100.00;100344.25;2614727;36;20121;-66
2021/10/05 09:58:48;;;;;;;4.05;1.90;;;;;;;15.30;100.00;100342.88;2616532;31;20077;-64
2021/10/05 10:01:16;;;;;;;5.53;2.05;;;;;;;15.40;100.00;100335.34;2615544;36;20157;-65
2021/10/05 10:03:46;;;;;;;7.13;2.05;;;;;;;15.58;100.00;100342.34;2615406;36;20150;-65
2021/10/05 10:06:15;;;;;;;3.47;1.88;;;;;;;15.62;100.00;100330.09;2615357;36;20176;-65
2021/10/05 10:08:48;;;;;;;7.20;1.92;;;;;;;15.79;100.00;100332.69;2615451;36;20565;-64
2021/10/05 10:11:16;;;;;;;5.90;1.80;;;;;;;15.70;100.00;100326.47;2614982;36;20129;-65
2021/10/05 10:13:46;;;;;;;3.05;1.52;;;;;;;15.78;100.00;100320.97;2615405;36;20031;-65
2021/10/05 10:16:15;;;;;;;2.78;1.40;;;;;;;15.89;100.00;100311.56;2613165;36;20038;-64
2021/10/05 10:18:58;;;;;;;4.75;2.20;;;;;;;15.97;100.00;100314.19;2615263;36;20162;-64
2021/10/05 10:21:29;;;;;;;5.28;2.38;;;;;;;15.95;100.00;100316.25;2615058;36;20056;-66
2021/10/05 10:24:13;;;;;;;3.45;1.60;;;;;;;16.13;100.00;100309.63;2615348;36;20056;-66
2021/10/05 10:26:44;;;;;;;3.00;1.73;;;;;;;16.45;100.00;100289.41;2614972;36;20038;-66
2021/10/05 10:29:14;;;;;;;3.67;1.45;;;;;;;16.37;100.00;100286.78;2614696;36;20479;-66
2021/10/05 10:31:44;;;;;;;5.38;1.80;;;;;;;16.34;100.00;100298.03;2614692;31;20117;-65
2021/10/05 10:34:22;;;;;;;4.28;1.45;;;;;;;16.51;100.00;100293.25;2614164;36;20034;-66
2021/10/05 10:36:51;;;;;;;2.83;1.63;;;;;;;16.44;100.00;100283.16;2614016;36;20030;-67
2021/10/05 10:39:27;;;;;;;3.17;1.55;;;;;;;16.68;100.00;100277.56;2614049;36;20129;-66
2021/10/05 10:42:04;;;;;;;4.72;1.70;;;;;;;16.81;100.00;100278.56;2614817;36;20041;-67
2021/10/05 10:44:36;;;;;;;3.45;1.58;;;;;;;16.83;100.00;100286.53;2614046;36;20121;-65
2021/10/05 10:47:10;;;;;;;5.95;2.00;;;;;;;16.58;100.00;100277.88;2614611;36;20041;-66
2021/10/05 10:49:39;;;;;;;8.35;1.67;;;;;;;16.43;100.00;100280.59;2614689;36;20118;-64
2021/10/05 10:52:09;;;;;;;3.92;1.73;;;;;;;16.32;100.00;100262.91;2614336;36;20026;-67
2021/10/05 10:54:40;;;;;;;3.05;1.50;;;;;;;16.68;100.00;100266.69;2614754;36;20649;-66
2021/10/05 10:57:10;;;;;;;3.75;1.70;;;;;;;16.73;100.00;100264.25;2614544;36;20133;-66
2021/10/05 10:59:39;;;;;;;3.42;1.58;;;;;;;16.74;100.00;100250.47;2613479;36;20030;-67
2021/10/05 11:02:09;;;;;;;;;;;;;;;16.58;100.00;100261.56;2613674;36;20077;-67
2021/10/05 11:04:37;;;;;;;3.30;1.77;;;;;;;16.74;100.00;100272.22;2613232;36;20078;-66
2021/10/05 11:07:06;;;;;;;3.17;1.73;;;;;;;16.99;100.00;100266.47;2613927;36;20026;-65
2021/10/05 11:09:37;;;;;;;5.50;1.73;;;;;;;16.65;100.00;100262.47;2614065;36;20145;-65
2021/10/05 11:12:10;;;;;;;6.03;1.95;;;;;;;16.74;100.00;100269.50;2614776;36;20106;-69
2021/10/05 11:14:40;;;;;;;11.35;2.38;;;;;;;16.62;100.00;100265.56;2614810;36;20061;-66
2021/10/05 11:17:10;;;;;;;5.85;1.95;;;;;;;16.38;100.00;100264.88;2614634;36;20102;-65
2021/10/05 11:19:40;;;;;;;4.45;2.00;;;;;;;16.20;100.00;100269.84;2614219;36;20131;-64
2021/10/05 11:22:11;;;;;;;6.95;2.83;;;;;;;16.06;100.00;100260.66;2614442;36;20181;-68
2021/10/05 11:24:43;;;;;;;3.90;1.55;;;;;;;16.13;100.00;100260.78;2613985;36;20466;-66
2021/10/05 11:27:17;;;;;;;4.75;1.58;;;;;;;16.03;100.00;100256.47;2613851;36;20037;-66
2021/10/05 11:29:46;;;;;;;5.47;1.70;;;;;;;16.06;100.00;100257.94;2614344;36;20031;-66